createdAt,value
2019-02-19T00:01:01.337Z,60.13
2019-02-19T00:02:06.984Z,60.09
2019-02-19T00:03:11.085Z,60.03
2019-02-19T00:04:15.274Z,59.94
2019-02-19T00:05:19.284Z,59.85
2019-02-19T00:06:23.538Z,59.76
2019-02-19T00:07:27.713Z,59.66
2019-02-19T00:08:31.954Z,59.52
2019-02-19T00:09:35.902Z,59.48
2019-02-19T00:10:39.906Z,59.39
2019-02-19T00:11:44.083Z,59.29
2019-02-19T00:12:48.343Z,59.18
2019-02-19T00:13:52.521Z,59.02
2019-02-19T00:14:56.563Z,58.88
2019-02-19T00:16:00.500Z,58.86
2019-02-19T00:17:04.431Z,58.86
2019-02-19T00:18:08.433Z,58.77
2019-02-19T00:19:12.366Z,58.69
2019-02-19T00:20:16.312Z,58.60
2019-02-19T00:21:20.315Z,58.57
2019-02-19T00:22:24.318Z,58.65
2019-02-19T00:23:28.504Z,58.70
2019-02-19T00:24:32.498Z,58.72
2019-02-19T00:25:36.760Z,58.73
2019-02-19T00:26:42.196Z,58.79
2019-02-19T00:27:46.606Z,58.86
2019-02-19T00:28:51.196Z,58.87
2019-02-19T00:29:55.483Z,58.92
2019-02-19T00:30:59.613Z,58.96
2019-02-19T00:32:03.838Z,58.96
2019-02-19T00:33:08.334Z,58.99
2019-02-19T00:34:13.043Z,59.02
2019-02-19T00:35:17.559Z,59.02
2019-02-19T00:36:21.557Z,58.99
2019-02-19T00:37:25.620Z,58.92
2019-02-19T00:38:29.573Z,58.83
2019-02-19T00:39:33.972Z,58.76
2019-02-19T00:40:38.073Z,58.66
2019-02-19T00:41:42.075Z,58.61
2019-02-19T00:42:46.062Z,58.56
2019-02-19T00:43:50.276Z,58.54
2019-02-19T00:44:54.229Z,58.54
2019-02-19T00:45:58.152Z,58.53
2019-02-19T00:47:02.494Z,58.52
2019-02-19T00:48:06.737Z,58.53
2019-02-19T00:49:10.665Z,58.51
2019-02-19T00:50:14.902Z,58.55
2019-02-19T00:51:19.107Z,58.57
2019-02-19T00:52:23.407Z,58.61
2019-02-19T00:53:27.407Z,58.60
2019-02-19T00:54:31.986Z,58.59
2019-02-19T00:55:36.234Z,58.55
2019-02-19T00:56:40.423Z,58.56
2019-02-19T00:57:44.678Z,58.58
2019-02-19T00:58:48.606Z,58.56
2019-02-19T00:59:52.615Z,58.56
2019-02-19T01:00:56.564Z,58.61
2019-02-19T01:02:00.731Z,58.64
2019-02-19T01:03:05.040Z,58.72
2019-02-19T01:04:09.287Z,58.67
2019-02-19T01:05:13.486Z,58.63
2019-02-19T01:06:17.506Z,58.71
2019-02-19T01:07:21.766Z,58.75
2019-02-19T01:08:25.798Z,58.77
2019-02-19T01:09:29.969Z,58.79
2019-02-19T01:10:33.970Z,58.79
2019-02-19T01:11:38.159Z,58.95
2019-02-19T01:12:42.330Z,59.15
2019-02-19T01:13:46.589Z,59.27
2019-02-19T01:14:50.835Z,59.32
2019-02-19T01:15:55.545Z,59.46
2019-02-19T01:16:59.838Z,59.54
2019-02-19T01:18:03.838Z,59.52
2019-02-19T01:19:08.150Z,59.60
2019-02-19T01:20:12.164Z,59.70
2019-02-19T01:21:16.178Z,59.82
2019-02-19T01:22:20.838Z,59.92
2019-02-19T01:23:24.855Z,59.98
2019-02-19T01:24:29.103Z,60.00
2019-02-19T01:25:33.034Z,60.01
2019-02-19T01:26:37.430Z,60.01
2019-02-19T01:27:41.367Z,59.97
2019-02-19T01:28:45.896Z,59.93
2019-02-19T01:29:50.411Z,59.80
2019-02-19T01:30:54.477Z,59.72
2019-02-19T01:31:58.523Z,59.68
2019-02-19T01:33:02.506Z,59.65
2019-02-19T01:34:06.649Z,59.59
2019-02-19T01:35:11.028Z,59.48
2019-02-19T01:36:14.958Z,59.42
2019-02-19T01:37:19.029Z,59.33
2019-02-19T01:38:23.087Z,59.21
2019-02-19T01:39:26.904Z,59.21
2019-02-19T01:40:30.839Z,59.30
2019-02-19T01:41:34.857Z,59.34
2019-02-19T01:42:38.962Z,59.35
2019-02-19T01:43:43.123Z,59.45
2019-02-19T01:44:47.408Z,59.57
2019-02-19T01:45:51.366Z,59.66
2019-02-19T01:46:55.313Z,59.70
2019-02-19T01:47:59.239Z,59.76
2019-02-19T01:49:03.550Z,59.79
2019-02-19T01:50:08.325Z,59.96
2019-02-19T01:51:12.566Z,60.05
2019-02-19T01:52:16.826Z,60.02
2019-02-19T01:53:20.997Z,60.05
2019-02-19T01:54:25.506Z,60.12
2019-02-19T01:55:29.607Z,60.13
2019-02-19T01:56:33.870Z,60.13
2019-02-19T01:57:37.814Z,60.11
2019-02-19T01:58:41.986Z,60.19
2019-02-19T01:59:45.843Z,60.27
2019-02-19T02:00:49.844Z,60.38
2019-02-19T02:01:53.771Z,60.53
2019-02-19T02:02:57.651Z,60.69
2019-02-19T02:04:01.749Z,60.78
2019-02-19T02:05:06.045Z,60.93
2019-02-19T02:06:10.047Z,61.08
2019-02-19T02:07:14.067Z,61.20
2019-02-19T02:08:17.998Z,61.35
2019-02-19T02:09:21.999Z,61.47
2019-02-19T02:10:25.924Z,61.49
2019-02-19T02:11:30.057Z,61.58
2019-02-19T02:12:34.004Z,61.69
2019-02-19T02:13:38.350Z,61.67
2019-02-19T02:14:42.273Z,61.79
2019-02-19T02:15:46.445Z,61.89
2019-02-19T02:16:50.455Z,61.85
2019-02-19T02:17:54.395Z,61.93
2019-02-19T02:18:58.571Z,62.02
2019-02-19T02:20:02.570Z,62.17
2019-02-19T02:21:06.831Z,62.26
2019-02-19T02:22:10.819Z,62.35
2019-02-19T02:23:15.004Z,62.41
2019-02-19T02:24:19.002Z,62.44
2019-02-19T02:25:23.640Z,62.49
2019-02-19T02:26:27.823Z,62.46
2019-02-19T02:27:31.680Z,62.46
2019-02-19T02:28:35.802Z,62.52
2019-02-19T02:29:39.895Z,62.54
2019-02-19T02:30:43.846Z,62.54
2019-02-19T02:31:47.991Z,62.58
2019-02-19T02:32:52.024Z,62.52
2019-02-19T02:33:55.879Z,62.49
2019-02-19T02:34:59.747Z,62.50
2019-02-19T02:36:03.822Z,62.60
2019-02-19T02:37:07.935Z,62.75
2019-02-19T02:38:12.305Z,62.91
2019-02-19T02:39:16.237Z,62.98
2019-02-19T02:40:20.508Z,62.97
2019-02-19T02:41:24.514Z,62.98
2019-02-19T02:42:28.949Z,62.99
2019-02-19T02:43:33.129Z,62.87
2019-02-19T02:44:37.121Z,62.84
2019-02-19T02:45:41.331Z,62.86
2019-02-19T02:46:45.541Z,62.85
2019-02-19T02:47:49.541Z,62.66
2019-02-19T02:48:53.671Z,62.63
2019-02-19T02:49:57.857Z,62.62
2019-02-19T02:51:01.784Z,62.58
2019-02-19T02:52:05.707Z,62.52
2019-02-19T02:53:09.644Z,62.52
2019-02-19T02:54:13.827Z,62.50
2019-02-19T02:55:17.759Z,62.47
2019-02-19T02:56:21.763Z,62.42
2019-02-19T02:57:26.273Z,62.43
2019-02-19T02:58:30.382Z,62.41
2019-02-19T02:59:34.310Z,62.34
2019-02-19T03:00:38.812Z,62.33
2019-02-19T03:01:43.241Z,62.28
2019-02-19T03:02:47.116Z,62.18
2019-02-19T03:03:51.565Z,62.14
2019-02-19T03:04:55.673Z,62.16
2019-02-19T03:06:11.682Z,62.15
2019-02-19T03:07:29.323Z,62.16
2019-02-19T03:08:33.512Z,62.12
2019-02-19T03:09:37.440Z,62.05
2019-02-19T03:10:41.622Z,61.96
2019-02-19T03:11:46.329Z,61.92
2019-02-19T03:12:50.546Z,61.90
2019-02-19T03:13:54.488Z,61.83
2019-02-19T03:14:58.912Z,61.81
2019-02-19T03:16:03.167Z,61.84
2019-02-19T03:17:07.022Z,61.87
2019-02-19T03:18:10.884Z,61.85
2019-02-19T03:19:15.155Z,61.78
2019-02-19T03:20:19.406Z,61.71
2019-02-19T03:21:23.402Z,61.59
2019-02-19T03:22:27.350Z,61.55
2019-02-19T03:23:31.280Z,61.61
2019-02-19T03:24:35.885Z,61.66
2019-02-19T03:25:39.817Z,61.74
2019-02-19T03:26:44.296Z,61.78
2019-02-19T03:27:48.230Z,61.91
2019-02-19T03:28:52.169Z,61.97
2019-02-19T03:29:56.710Z,62.00
2019-02-19T03:31:00.916Z,62.15
2019-02-19T03:32:04.962Z,62.29
2019-02-19T03:33:09.431Z,62.31
2019-02-19T03:34:13.297Z,62.32
2019-02-19T03:35:17.368Z,62.39
2019-02-19T03:36:21.303Z,62.39
2019-02-19T03:37:25.941Z,62.39
2019-02-19T03:38:29.976Z,62.54
2019-02-19T03:39:33.959Z,62.55
2019-02-19T03:40:38.149Z,62.70
2019-02-19T03:41:42.087Z,62.78
2019-02-19T03:42:46.029Z,62.83
2019-02-19T03:43:50.313Z,62.82
2019-02-19T03:44:54.880Z,62.75
2019-02-19T03:45:58.804Z,62.76
2019-02-19T03:47:03.021Z,62.78
2019-02-19T03:48:07.288Z,62.73
2019-02-19T03:49:11.589Z,62.62
2019-02-19T03:50:16.214Z,62.54
2019-02-19T03:51:20.413Z,62.55
2019-02-19T03:52:24.411Z,62.61
2019-02-19T03:53:28.823Z,62.60
2019-02-19T03:54:33.132Z,62.59
2019-02-19T03:55:37.851Z,62.59
2019-02-19T03:56:41.968Z,62.58
2019-02-19T03:57:46.086Z,62.57
2019-02-19T03:58:50.018Z,62.53
2019-02-19T03:59:54.101Z,62.49
2019-02-19T04:00:58.883Z,62.50
2019-02-19T04:02:03.225Z,62.49
2019-02-19T04:03:07.800Z,62.50
2019-02-19T04:04:12.088Z,62.36
2019-02-19T04:05:16.417Z,62.22
2019-02-19T04:06:20.418Z,62.15
2019-02-19T04:07:24.347Z,61.99
2019-02-19T04:08:28.277Z,61.84
2019-02-19T04:09:32.207Z,61.84
2019-02-19T04:10:36.461Z,61.86
2019-02-19T04:11:40.389Z,61.73
2019-02-19T04:12:44.647Z,61.60
2019-02-19T04:13:48.822Z,61.66
2019-02-19T04:14:52.995Z,61.73
2019-02-19T04:15:57.024Z,61.77
2019-02-19T04:17:01.267Z,61.84
2019-02-19T04:18:05.442Z,61.84
2019-02-19T04:19:09.619Z,61.95
2019-02-19T04:20:14.121Z,61.99
2019-02-19T04:21:18.400Z,62.11
2019-02-19T04:22:22.323Z,62.20
2019-02-19T04:23:26.423Z,62.26
2019-02-19T04:24:30.278Z,62.16
2019-02-19T04:25:34.396Z,62.27
2019-02-19T04:26:38.831Z,62.36
2019-02-19T04:27:43.078Z,62.38
2019-02-19T04:28:46.930Z,62.27
2019-02-19T04:29:51.032Z,62.27
2019-02-19T04:30:54.988Z,62.41
2019-02-19T04:31:58.835Z,62.51
2019-02-19T04:33:03.355Z,62.61
2019-02-19T04:34:07.571Z,62.65
2019-02-19T04:35:11.610Z,62.70
2019-02-19T04:36:15.912Z,62.79
2019-02-19T04:37:19.937Z,62.78
2019-02-19T04:38:23.973Z,62.73
2019-02-19T04:39:28.001Z,62.90
2019-02-19T04:40:32.413Z,63.05
2019-02-19T04:41:36.452Z,63.06
2019-02-19T04:42:40.481Z,63.18
2019-02-19T04:43:44.751Z,63.23
2019-02-19T04:44:48.709Z,63.22
2019-02-19T04:45:52.746Z,63.25
2019-02-19T04:46:56.791Z,63.42
2019-02-19T04:48:01.084Z,63.52
2019-02-19T04:49:05.648Z,63.43
2019-02-19T04:50:09.695Z,63.52
2019-02-19T04:51:14.249Z,63.61
2019-02-19T04:52:18.226Z,63.56
2019-02-19T04:53:22.241Z,63.48
2019-02-19T04:54:26.513Z,63.45
2019-02-19T04:55:30.550Z,63.37
2019-02-19T04:56:34.734Z,63.37
2019-02-19T04:57:38.679Z,63.38
2019-02-19T04:58:42.637Z,63.41
2019-02-19T04:59:46.658Z,63.35
2019-02-19T05:00:50.971Z,63.33
2019-02-19T05:01:54.938Z,63.36
2019-02-19T05:02:59.231Z,63.36
2019-02-19T05:04:03.536Z,63.34
2019-02-19T05:05:07.564Z,63.26
2019-02-19T05:06:11.520Z,63.32
2019-02-19T05:07:15.550Z,63.42
2019-02-19T05:08:19.912Z,63.52
2019-02-19T05:09:24.049Z,63.63
2019-02-19T05:10:28.258Z,63.61
2019-02-19T05:11:32.231Z,63.53
2019-02-19T05:12:36.165Z,63.63
2019-02-19T05:13:40.185Z,63.70
2019-02-19T05:14:44.060Z,63.90
2019-02-19T05:15:48.089Z,63.98
2019-02-19T05:16:52.363Z,64.07
2019-02-19T05:17:56.816Z,64.18
2019-02-19T05:19:00.709Z,64.28
2019-02-19T05:20:05.372Z,64.24
2019-02-19T05:21:09.695Z,64.20
2019-02-19T05:22:13.728Z,64.27
2019-02-19T05:23:18.113Z,64.36
2019-02-19T05:24:22.052Z,64.42
2019-02-19T05:25:26.100Z,64.30
2019-02-19T05:26:30.048Z,64.28
2019-02-19T05:27:34.429Z,64.42
2019-02-19T05:28:38.728Z,64.38
2019-02-19T05:29:42.771Z,64.28
2019-02-19T05:30:47.042Z,64.31
2019-02-19T05:31:51.070Z,64.42
2019-02-19T05:32:55.154Z,64.50
2019-02-19T05:33:59.204Z,64.54
2019-02-19T05:35:03.571Z,64.48
2019-02-19T05:36:09.125Z,64.49
2019-02-19T05:37:13.503Z,64.36
2019-02-19T05:38:17.404Z,64.34
2019-02-19T05:39:22.018Z,64.23
2019-02-19T05:40:26.321Z,64.22
2019-02-19T05:41:30.353Z,64.24
2019-02-19T05:42:35.249Z,63.95
2019-02-19T05:43:39.462Z,63.98
2019-02-19T05:44:43.833Z,64.05
2019-02-19T05:45:48.106Z,64.00
2019-02-19T05:46:52.374Z,64.05
2019-02-19T05:47:56.425Z,64.23
2019-02-19T05:49:00.762Z,64.36
2019-02-19T05:50:05.124Z,64.48
2019-02-19T05:51:09.148Z,64.58
2019-02-19T05:52:13.231Z,64.63
2019-02-19T05:53:17.252Z,64.63
2019-02-19T05:54:21.267Z,64.61
2019-02-19T05:55:25.662Z,64.48
2019-02-19T05:56:30.268Z,64.54
2019-02-19T05:57:34.304Z,64.62
2019-02-19T05:58:38.414Z,64.62
2019-02-19T05:59:42.417Z,64.65
2019-02-19T06:00:46.609Z,64.65
2019-02-19T06:01:50.523Z,64.60
2019-02-19T06:02:54.694Z,64.56
2019-02-19T06:03:58.713Z,64.49
2019-02-19T06:05:02.890Z,64.46
2019-02-19T06:06:06.893Z,64.42
2019-02-19T06:07:11.016Z,64.31
2019-02-19T06:08:15.443Z,64.12
2019-02-19T06:09:19.460Z,64.09
2019-02-19T06:10:23.892Z,64.13
2019-02-19T06:11:27.814Z,64.11
2019-02-19T06:12:31.915Z,64.15
2019-02-19T06:13:36.040Z,64.23
2019-02-19T06:14:40.276Z,64.23
2019-02-19T06:15:44.276Z,64.38
2019-02-19T06:16:48.528Z,64.40
2019-02-19T06:17:52.737Z,64.20
2019-02-19T06:18:56.700Z,64.27
2019-02-19T06:20:00.890Z,64.29
2019-02-19T06:21:05.134Z,64.22
2019-02-19T06:22:09.311Z,64.18
2019-02-19T06:23:13.754Z,64.33
2019-02-19T06:24:17.968Z,64.24
2019-02-19T06:25:21.891Z,64.12
2019-02-19T06:26:25.830Z,63.79
2019-02-19T06:27:30.098Z,63.77
2019-02-19T06:28:34.160Z,63.73
2019-02-19T06:29:38.961Z,63.66
2019-02-19T06:30:42.881Z,63.52
2019-02-19T06:31:55.193Z,63.32
2019-02-19T06:32:53.394Z,62.99
2019-02-19T06:33:57.338Z,63.01
2019-02-19T06:35:01.558Z,63.06
2019-02-19T06:36:05.838Z,63.10
2019-02-19T06:37:10.003Z,63.13
2019-02-19T06:38:13.947Z,63.25
2019-02-19T06:39:18.579Z,63.37
2019-02-19T06:40:27.437Z,63.43
2019-02-19T06:41:31.442Z,63.43
2019-02-19T06:42:35.450Z,63.22
2019-02-19T06:43:39.531Z,63.19
2019-02-19T06:44:43.785Z,63.07
2019-02-19T06:45:47.716Z,62.96
2019-02-19T06:46:51.991Z,63.00
2019-02-19T06:47:55.995Z,63.05
2019-02-19T06:49:00.094Z,63.07
2019-02-19T06:50:04.406Z,62.91
2019-02-19T06:51:08.336Z,62.70
2019-02-19T06:52:12.261Z,62.73
2019-02-19T06:53:16.435Z,62.98
2019-02-19T06:54:20.955Z,62.95
2019-02-19T06:55:25.202Z,62.99
2019-02-19T06:56:29.551Z,63.05
2019-02-19T06:57:33.722Z,62.91
2019-02-19T06:58:37.899Z,63.11
2019-02-19T06:59:42.114Z,63.25
2019-02-19T07:00:46.223Z,63.42
2019-02-19T07:02:14.486Z,63.51
2019-02-19T07:03:23.454Z,63.65
2019-02-19T07:04:34.707Z,63.96
2019-02-19T07:05:38.706Z,64.07
2019-02-19T07:06:42.633Z,64.19
2019-02-19T07:07:46.917Z,64.32
2019-02-19T07:08:50.849Z,64.27
2019-02-19T07:09:54.864Z,64.53
2019-02-19T07:10:59.201Z,64.62
2019-02-19T07:12:03.138Z,64.61
2019-02-19T07:13:07.450Z,64.75
2019-02-19T07:14:11.453Z,64.82
2019-02-19T07:15:15.710Z,64.78
2019-02-19T07:16:19.916Z,64.66
2019-02-19T07:17:23.766Z,64.51
2019-02-19T07:18:27.694Z,64.34
2019-02-19T07:19:31.955Z,64.24
2019-02-19T07:20:35.936Z,64.15
2019-02-19T07:21:39.989Z,64.27
2019-02-19T07:22:43.988Z,64.24
2019-02-19T07:23:48.366Z,64.19
2019-02-19T07:24:52.679Z,64.20
2019-02-19T07:25:56.762Z,64.19
2019-02-19T07:27:00.702Z,64.09
2019-02-19T07:28:04.751Z,64.19
2019-02-19T07:29:08.606Z,64.12
2019-02-19T07:30:12.739Z,64.16
2019-02-19T07:31:17.055Z,64.30
2019-02-19T07:32:21.209Z,64.31
2019-02-19T07:33:27.362Z,64.51
2019-02-19T07:34:31.651Z,64.47
2019-02-19T07:35:35.855Z,64.46
2019-02-19T07:36:39.982Z,64.39
2019-02-19T07:37:44.374Z,64.36
2019-02-19T07:38:48.678Z,64.14
2019-02-19T07:39:52.618Z,64.18
2019-02-19T07:40:56.732Z,64.32
2019-02-19T07:42:01.091Z,64.45
2019-02-19T07:43:05.102Z,64.18
2019-02-19T07:44:09.039Z,64.04
2019-02-19T07:45:13.410Z,64.10
2019-02-19T07:46:19.220Z,64.28
2019-02-19T07:47:24.858Z,64.17
2019-02-19T07:48:29.457Z,63.71
2019-02-19T07:49:33.603Z,63.87
2019-02-19T07:50:37.555Z,63.93
2019-02-19T07:51:42.731Z,63.80
2019-02-19T07:52:47.243Z,63.73
2019-02-19T07:53:51.133Z,63.80
2019-02-19T07:54:58.249Z,63.94
2019-02-19T07:56:02.681Z,63.61
2019-02-19T07:57:07.000Z,63.59
2019-02-19T07:58:11.184Z,63.64
2019-02-19T07:59:15.415Z,63.58
2019-02-19T08:00:20.369Z,63.29
2019-02-19T08:01:24.645Z,63.28
2019-02-19T08:02:28.578Z,63.32
2019-02-19T08:03:32.883Z,63.22
2019-02-19T08:04:36.816Z,63.24
2019-02-19T08:05:41.003Z,63.24
2019-02-19T08:06:44.953Z,63.15
2019-02-19T08:07:48.884Z,63.12
2019-02-19T08:08:53.079Z,62.90
2019-02-19T08:09:56.929Z,62.81
2019-02-19T08:11:01.121Z,62.82
2019-02-19T08:12:05.366Z,62.86
2019-02-19T08:13:09.796Z,62.99
2019-02-19T08:14:13.912Z,62.89
2019-02-19T08:15:17.908Z,62.84
2019-02-19T08:16:21.842Z,62.79
2019-02-19T08:17:33.077Z,62.80
2019-02-19T08:18:31.942Z,62.92
2019-02-19T08:19:36.039Z,63.18
2019-02-19T08:20:39.962Z,63.50
2019-02-19T08:21:43.979Z,63.67
2019-02-19T08:22:48.229Z,63.70
2019-02-19T08:23:52.335Z,63.63
2019-02-19T08:24:56.269Z,63.61
2019-02-19T08:26:00.490Z,63.57
2019-02-19T08:27:04.753Z,63.58
2019-02-19T08:28:08.998Z,63.76
2019-02-19T08:29:14.044Z,63.80
2019-02-19T08:30:18.155Z,63.74
2019-02-19T08:31:22.495Z,63.82
2019-02-19T08:32:27.064Z,63.97
2019-02-19T08:33:31.195Z,64.05
2019-02-19T08:34:35.126Z,64.08
2019-02-19T08:35:39.573Z,64.08
2019-02-19T08:36:45.386Z,64.07
2019-02-19T08:37:49.773Z,64.18
2019-02-19T08:38:53.878Z,64.20
2019-02-19T08:39:57.978Z,64.24
2019-02-19T08:41:02.241Z,64.05
2019-02-19T08:42:06.851Z,63.98
2019-02-19T08:43:11.364Z,64.03
2019-02-19T08:44:16.091Z,64.25
2019-02-19T08:45:20.135Z,64.32
2019-02-19T08:46:24.802Z,64.49
2019-02-19T08:47:29.010Z,64.49
2019-02-19T08:48:33.142Z,64.57
2019-02-19T08:49:37.416Z,64.69
2019-02-19T08:50:41.693Z,64.76
2019-02-19T08:51:45.579Z,64.80
2019-02-19T08:52:49.950Z,64.77
2019-02-19T08:53:54.242Z,64.75
2019-02-19T08:54:58.103Z,64.88
2019-02-19T08:56:02.398Z,65.02
2019-02-19T08:57:06.695Z,65.01
2019-02-19T08:58:10.702Z,65.02
2019-02-19T08:59:14.659Z,65.08
2019-02-19T09:00:18.843Z,65.10
2019-02-19T09:01:22.854Z,65.17
2019-02-19T09:02:27.295Z,65.17
2019-02-19T09:03:31.499Z,65.12
2019-02-19T09:04:36.255Z,64.83
2019-02-19T09:05:40.288Z,64.72
2019-02-19T09:06:44.624Z,64.61
2019-02-19T09:07:48.490Z,64.44
2019-02-19T09:08:52.969Z,64.25
2019-02-19T09:09:56.827Z,64.16
2019-02-19T09:11:01.026Z,64.12
2019-02-19T09:12:04.984Z,64.05
2019-02-19T09:13:09.235Z,64.01
2019-02-19T09:14:13.178Z,63.96
2019-02-19T09:15:17.364Z,63.86
2019-02-19T09:16:21.641Z,63.78
2019-02-19T09:17:25.666Z,63.60
2019-02-19T09:18:30.008Z,63.45
2019-02-19T09:19:33.946Z,63.38
2019-02-19T09:20:37.881Z,63.39
2019-02-19T09:21:42.461Z,63.38
2019-02-19T09:22:46.416Z,63.33
2019-02-19T09:23:50.440Z,63.29
2019-02-19T09:24:55.379Z,63.28
2019-02-19T09:26:00.019Z,63.29
2019-02-19T09:27:04.036Z,63.32
2019-02-19T09:28:08.326Z,63.28
2019-02-19T09:29:12.619Z,63.33
2019-02-19T09:30:16.636Z,63.36
2019-02-19T09:31:21.256Z,63.36
2019-02-19T09:32:25.421Z,63.33
2019-02-19T09:33:29.367Z,63.31
2019-02-19T09:34:33.298Z,63.32
2019-02-19T09:35:37.227Z,63.28
2019-02-19T09:36:41.153Z,63.30
2019-02-19T09:37:45.343Z,63.31
2019-02-19T09:38:50.123Z,63.34
2019-02-19T09:39:54.231Z,63.37
2019-02-19T09:40:58.331Z,63.37
2019-02-19T09:42:11.520Z,63.32
2019-02-19T09:43:15.767Z,63.31
2019-02-19T09:44:19.784Z,63.35
2019-02-19T09:45:23.711Z,63.35
2019-02-19T09:46:27.954Z,63.34
2019-02-19T09:47:32.130Z,63.33
2019-02-19T09:48:36.314Z,63.30
2019-02-19T09:49:40.250Z,63.30
2019-02-19T09:50:44.250Z,63.28
2019-02-19T09:51:48.195Z,63.26
2019-02-19T09:52:59.735Z,63.28
2019-02-19T09:53:58.035Z,63.29
2019-02-19T09:55:01.976Z,63.32
2019-02-19T09:56:05.982Z,63.35
2019-02-19T09:57:10.244Z,63.37
2019-02-19T09:58:14.160Z,63.41
2019-02-19T09:59:18.343Z,63.43
2019-02-19T10:00:22.276Z,63.49
2019-02-19T10:01:28.201Z,63.50
2019-02-19T10:02:32.009Z,63.52
2019-02-19T10:03:35.951Z,63.56
2019-02-19T10:04:39.883Z,63.59
2019-02-19T10:05:44.072Z,63.59
2019-02-19T10:06:48.075Z,63.51
2019-02-19T10:07:52.078Z,63.35
2019-02-19T10:08:56.095Z,63.25
2019-02-19T10:10:00.352Z,63.23
2019-02-19T10:11:04.328Z,63.14
2019-02-19T10:12:08.542Z,62.99
2019-02-19T10:13:12.553Z,62.87
2019-02-19T10:14:16.426Z,62.84
2019-02-19T10:15:20.749Z,62.75
2019-02-19T10:16:24.941Z,62.64
2019-02-19T10:17:29.136Z,62.55
2019-02-19T10:18:33.137Z,62.58
2019-02-19T10:19:37.449Z,62.58
2019-02-19T10:20:41.865Z,62.59
2019-02-19T10:21:46.091Z,62.64
2019-02-19T10:22:50.019Z,62.68
2019-02-19T10:23:54.296Z,62.74
2019-02-19T10:24:58.504Z,62.74
2019-02-19T10:26:02.527Z,62.72
2019-02-19T10:27:06.503Z,62.71
2019-02-19T10:28:10.639Z,62.60
2019-02-19T10:29:14.923Z,62.61
2019-02-19T10:30:19.026Z,62.70
2019-02-19T10:31:23.613Z,62.72
2019-02-19T10:32:28.126Z,62.29
2019-02-19T10:33:32.197Z,61.83
2019-02-19T10:34:36.061Z,61.41
2019-02-19T10:35:40.334Z,61.13
2019-02-19T10:36:44.846Z,60.85
2019-02-19T10:37:49.022Z,60.75
2019-02-19T10:38:52.965Z,60.51
2019-02-19T10:39:56.910Z,60.40
2019-02-19T10:41:01.464Z,60.72
2019-02-19T10:42:05.720Z,60.88
2019-02-19T10:43:09.642Z,60.96
2019-02-19T10:44:13.522Z,61.05
2019-02-19T10:45:18.207Z,61.06
2019-02-19T10:46:22.205Z,61.01
2019-02-19T10:47:26.212Z,61.14
2019-02-19T10:48:30.726Z,61.01
2019-02-19T10:49:34.920Z,60.94
2019-02-19T10:50:39.023Z,60.81
2019-02-19T10:51:43.126Z,60.26
2019-02-19T10:52:47.296Z,60.04
2019-02-19T10:53:51.218Z,59.93
2019-02-19T10:54:55.080Z,59.76
2019-02-19T10:55:59.371Z,59.76
2019-02-19T10:57:03.383Z,59.75
2019-02-19T10:58:07.620Z,59.82
2019-02-19T10:59:11.758Z,59.88
2019-02-19T11:00:17.889Z,59.83
2019-02-19T11:01:21.918Z,59.81
2019-02-19T11:02:25.926Z,59.81
2019-02-19T11:03:29.940Z,59.72
2019-02-19T11:04:34.202Z,59.71
2019-02-19T11:05:38.394Z,59.61
2019-02-19T11:06:42.323Z,59.70
2019-02-19T11:07:46.586Z,59.79
2019-02-19T11:08:50.839Z,59.81
2019-02-19T11:09:54.836Z,59.72
2019-02-19T11:10:59.106Z,59.78
2019-02-19T11:12:03.118Z,59.92
2019-02-19T11:13:07.319Z,60.14
2019-02-19T11:14:11.486Z,60.32
2019-02-19T11:15:17.430Z,60.43
2019-02-19T11:16:21.557Z,60.43
2019-02-19T11:17:25.806Z,60.43
2019-02-19T11:18:30.019Z,60.50
2019-02-19T11:19:33.972Z,60.74
2019-02-19T11:20:37.990Z,60.91
2019-02-19T11:21:42.438Z,60.98
2019-02-19T11:22:47.132Z,61.07
2019-02-19T11:23:51.263Z,61.28
2019-02-19T11:24:55.627Z,61.45
2019-02-19T11:25:59.862Z,61.56
2019-02-19T11:27:03.878Z,61.59
2019-02-19T11:28:07.814Z,61.67
2019-02-19T11:29:12.085Z,61.78
2019-02-19T11:30:16.609Z,61.91
2019-02-19T11:31:20.551Z,61.93
2019-02-19T11:32:26.288Z,61.95
2019-02-19T11:33:30.819Z,61.87
2019-02-19T11:34:35.084Z,61.73
2019-02-19T11:35:39.189Z,61.66
2019-02-19T11:36:44.050Z,61.66
2019-02-19T11:37:48.000Z,61.58
2019-02-19T11:38:52.179Z,61.46
2019-02-19T11:39:56.463Z,61.39
2019-02-19T11:41:00.336Z,61.31
2019-02-19T11:42:04.925Z,61.21
2019-02-19T11:43:09.184Z,61.10
2019-02-19T11:44:13.391Z,60.95
2019-02-19T11:45:17.537Z,60.82
2019-02-19T11:46:21.748Z,60.65
2019-02-19T11:47:26.747Z,60.41
2019-02-19T11:48:36.906Z,60.30
2019-02-19T11:49:37.289Z,60.16
2019-02-19T11:50:42.229Z,60.13
2019-02-19T11:51:46.175Z,60.04
2019-02-19T11:52:50.352Z,60.02
2019-02-19T11:53:54.527Z,59.74
2019-02-19T11:54:58.384Z,59.51
2019-02-19T11:56:02.608Z,59.43
2019-02-19T11:57:06.608Z,59.27
2019-02-19T11:58:10.846Z,59.29
2019-02-19T11:59:14.846Z,59.21
2019-02-19T12:00:22.286Z,59.21
2019-02-19T12:01:26.587Z,59.22
2019-02-19T12:02:33.013Z,59.20
2019-02-19T12:03:36.541Z,59.16
2019-02-19T12:04:41.039Z,59.17
2019-02-19T12:05:45.289Z,59.14
2019-02-19T12:06:49.977Z,59.11
2019-02-19T12:07:53.993Z,59.11
2019-02-19T12:08:58.100Z,59.08
2019-02-19T12:10:02.483Z,59.09
2019-02-19T12:11:06.701Z,59.04
2019-02-19T12:12:10.987Z,58.93
2019-02-19T12:13:14.945Z,58.94
2019-02-19T12:14:18.805Z,58.96
2019-02-19T12:15:22.932Z,58.96
2019-02-19T12:16:27.227Z,58.95
2019-02-19T12:17:31.231Z,59.01
2019-02-19T12:18:35.096Z,58.99
2019-02-19T12:19:39.732Z,59.00
2019-02-19T12:20:44.003Z,59.04
2019-02-19T12:21:47.951Z,59.00
2019-02-19T12:22:52.232Z,58.99
2019-02-19T12:23:56.215Z,59.00
2019-02-19T12:25:00.290Z,58.96
2019-02-19T12:26:04.570Z,58.91
2019-02-19T12:27:09.013Z,58.95
2019-02-19T12:28:13.291Z,58.95
2019-02-19T12:29:17.591Z,58.97
2019-02-19T12:30:21.644Z,58.83
2019-02-19T12:31:25.547Z,58.71
2019-02-19T12:32:30.235Z,58.62
2019-02-19T12:33:34.499Z,58.45
2019-02-19T12:34:38.841Z,58.13
2019-02-19T12:35:42.886Z,58.00
2019-02-19T12:36:47.352Z,57.85
2019-02-19T12:37:51.560Z,57.62
2019-02-19T12:38:55.513Z,57.53
2019-02-19T12:39:59.586Z,57.41
2019-02-19T12:41:04.026Z,57.08
2019-02-19T12:42:08.384Z,56.79
2019-02-19T12:43:12.667Z,56.79
2019-02-19T12:44:16.608Z,56.56
2019-02-19T12:45:20.608Z,56.57
2019-02-19T12:46:24.633Z,56.53
2019-02-19T12:47:28.747Z,56.59
2019-02-19T12:48:33.087Z,56.57
2019-02-19T12:49:37.027Z,56.60
2019-02-19T12:50:41.033Z,56.67
2019-02-19T12:51:45.027Z,56.82
2019-02-19T12:52:49.419Z,56.92
2019-02-19T12:53:53.824Z,57.00
2019-02-19T12:54:57.764Z,57.07
2019-02-19T12:56:01.815Z,57.26
2019-02-19T12:57:06.134Z,57.38
2019-02-19T12:58:10.444Z,57.47
2019-02-19T12:59:17.206Z,57.46
2019-02-19T13:00:21.217Z,57.44
2019-02-19T13:01:28.498Z,57.43
2019-02-19T13:02:32.694Z,57.42
2019-02-19T13:03:36.765Z,57.53
2019-02-19T13:04:40.945Z,57.50
2019-02-19T13:05:44.938Z,57.37
2019-02-19T13:06:49.231Z,57.21
2019-02-19T13:07:53.624Z,57.16
2019-02-19T13:08:57.570Z,57.24
2019-02-19T13:10:01.784Z,57.32
2019-02-19T13:11:05.800Z,57.30
2019-02-19T13:12:10.740Z,57.26
2019-02-19T13:13:14.745Z,57.15
2019-02-19T13:14:19.059Z,57.18
2019-02-19T13:15:23.364Z,57.20
2019-02-19T13:16:27.503Z,57.24
2019-02-19T13:17:31.714Z,57.06
2019-02-19T13:18:35.730Z,56.95
2019-02-19T13:19:39.831Z,56.94
2019-02-19T13:20:43.830Z,56.73
2019-02-19T13:21:48.019Z,56.41
2019-02-19T13:22:51.951Z,56.42
2019-02-19T13:23:56.138Z,56.35
2019-02-19T13:24:59.996Z,56.29
2019-02-19T13:26:03.928Z,56.35
2019-02-19T13:27:07.950Z,56.26
2019-02-19T13:28:11.893Z,56.24
2019-02-19T13:29:15.898Z,56.26
2019-02-19T13:30:19.932Z,56.27
2019-02-19T13:31:23.928Z,56.25
2019-02-19T13:32:27.928Z,56.24
2019-02-19T13:33:31.875Z,56.01
2019-02-19T13:34:35.799Z,55.72
2019-02-19T13:35:40.047Z,55.67
2019-02-19T13:36:44.047Z,55.77
2019-02-19T13:37:48.231Z,55.77
2019-02-19T13:38:52.174Z,55.62
2019-02-19T13:39:56.184Z,55.55
2019-02-19T13:41:00.177Z,55.58
2019-02-19T13:42:04.104Z,55.24
2019-02-19T13:43:08.350Z,54.93
2019-02-19T13:44:12.642Z,54.81
2019-02-19T13:45:16.662Z,54.85
2019-02-19T13:46:20.622Z,54.98
2019-02-19T13:47:24.567Z,55.04
2019-02-19T13:48:28.627Z,55.17